Time;durP1;ratioP1;P1;durP2;ratioP2;P2;SDS_P1;SDS_P2;PMS_P1;PMS_P2;Temp;Humidity;BMP_temperature;BMP_pressure;BME280_temperature;BME280_humidity;BME280_pressure;Samples;Min_cycle;Max_cycle;Signal;HPM_P1;HPM_P2
2023/12/20 00:01:37;;;;;;;;;;;;;;;-3.80;100.00;97620.58;110412;1241;71326;-58
2023/12/20 00:04:07;;;;;;;;;;;;;;;-3.75;100.00;97618.81;110507;1241;68468;-60
2023/12/20 00:06:37;;;;;;;;;;;;;;;-3.74;100.00;97609.95;110380;1240;69103;-58
2023/12/20 00:09:07;;;;;;;;;;;;;;;-3.78;100.00;97601.64;110484;1238;59735;-57
2023/12/20 00:11:38;;;;;;;;;;;;;;;-3.80;100.00;97596.05;110367;1242;59672;-58
2023/12/20 00:14:18;;;;;;;;;;;;;;;-3.84;100.00;97591.16;110505;1247;71428;-57
2023/12/20 00:16:49;;;;;;;;;;;;;;;-3.83;100.00;97591.51;110449;1241;68441;-56
2023/12/20 00:19:19;;;;;;;;;;;;;;;-3.85;100.00;97590.66;110623;1244;68688;-56
2023/12/20 00:21:49;;;;;;;;;;;;;;;-3.91;100.00;97581.89;110479;1238;59705;-56
2023/12/20 00:24:21;;;;;;;;;;;;;;;-3.93;100.00;97574.92;110411;1239;59655;-57
2023/12/20 00:26:51;;;;;;;;;;;;;;;-3.96;100.00;97574.63;110497;1239;71450;-57
2023/12/20 00:29:22;;;;;;;;;;;;;;;-3.99;100.00;97572.79;110437;1241;69246;-57
2023/12/20 00:31:54;;;;;;;;;;;;;;;-3.99;100.00;97565.80;110445;1237;68328;-58
2023/12/20 00:34:25;;;;;;;;;;;;;;;-4.06;100.00;97566.73;110531;1238;59664;-58
2023/12/20 00:36:56;;;;;;;;;;;;;;;-4.12;100.00;97564.27;110617;1237;60031;-55
2023/12/20 00:39:30;;;;;;;;;;;;;;;-4.07;100.00;97559.45;110579;1237;70622;-57
2023/12/20 00:42:00;;;;;;;;;;;;;;;-4.06;100.00;97554.99;110604;1239;68617;-57
2023/12/20 00:44:30;;;;;;;;;;;;;;;-4.04;100.00;97550.39;110624;1239;69275;-57
2023/12/20 00:47:01;;;;;;;;;;;;;;;-4.01;100.00;97546.94;110491;1239;60537;-58
2023/12/20 00:49:32;;;;;;;;;;;;;;;-3.98;100.00;97539.91;110494;1240;60557;-57
2023/12/20 00:52:02;;;;;;;;;;;;;;;-4.01;100.00;97529.91;110595;1246;72303;-57
2023/12/20 00:54:33;;;;;;;;;;;;;;;-4.03;100.00;97520.93;110517;1239;69146;-57
2023/12/20 00:57:06;;;;;;;;;;;;;;;-4.07;100.00;97522.66;110542;1239;69328;-57
2023/12/20 00:59:41;;;;;;;;;;;;;;;-4.08;100.00;97518.27;110437;1243;61233;-56
2023/12/20 01:02:14;;;;;;;;;;;;;;;-4.07;100.00;97521.14;110672;1239;60487;-56
2023/12/20 01:04:45;;;;;;;;;;;;;;;-4.07;100.00;97521.48;110508;1241;72190;-56
2023/12/20 01:07:15;;;;;;;;;;;;;;;-4.10;100.00;97517.09;110452;1241;68461;-57
2023/12/20 01:09:46;;;;;;;;;;;;;;;-4.11;100.00;97512.52;110551;1241;69406;-56
2023/12/20 01:12:20;;;;;;;;;;;;;;;-4.14;100.00;97511.36;110411;1243;60822;-57
2023/12/20 01:14:52;;;;;;;;;;;;;;;-4.17;100.00;97509.35;110491;1241;60553;-57
2023/12/20 01:17:30;;;;;;;;;;;;;;;-4.22;100.00;97506.34;110438;1238;72328;-57
2023/12/20 01:20:03;;;;;;;;;;;;;;;-4.27;100.00;97504.71;110485;1241;69163;-57
2023/12/20 01:22:42;;;;;;;;;;;;;;;-4.30;100.00;97499.30;110467;1247;69232;-58
2023/12/20 01:25:23;;;;;;;;;;;;;;;-4.33;100.00;97493.55;110610;1238;60553;-57
2023/12/20 01:27:55;;;;;;;;;;;;;;;-4.39;100.00;97486.83;110560;1239;60481;-56
2023/12/20 01:30:31;;;;;;;;;;;;;;;-4.45;100.00;97484.35;110425;1239;72169;-58
2023/12/20 01:33:04;;;;;;;;;;;;;;;-4.45;100.00;97486.56;110575;1239;69256;-56
2023/12/20 01:35:33;;;;;;;;;;;;;;;-4.43;100.00;97487.20;110460;1238;68540;-56
2023/12/20 01:38:03;;;;;;;;;;;;;;;-4.42;100.00;97483.96;110462;1241;60459;-56
2023/12/20 01:40:35;;;;;;;;;;;;;;;-4.48;100.00;97478.08;110373;1238;60490;-56
2023/12/20 01:43:09;;;;;;;;;;;;;;;-4.51;100.00;97472.85;110418;1240;72199;-57
2023/12/20 01:45:49;;;;;;;;;;;;;;;-4.53;100.00;97472.71;110438;1238;68943;-57
2023/12/20 01:48:23;;;;;;;;;;;;;;;-4.57;100.00;97468.16;110563;1241;69159;-57
2023/12/20 01:51:03;;;;;;;;;;;;;;;-4.61;100.00;97464.64;110426;1241;60476;-57
2023/12/20 01:53:34;;;;;;;;;;;;;;;-4.61;100.00;97458.68;108915;1241;2240191;-57
2023/12/20 01:56:04;;;;;;;;;;;;;;;-4.59;100.00;97451.01;110403;1238;72439;-57
2023/12/20 01:58:34;;;;;;;;;;;;;;;-4.59;100.00;97443.17;110520;1241;69990;-57
2023/12/20 02:01:09;;;;;;;;;;;;;;;-4.60;100.00;97439.95;110466;1239;69253;-56
2023/12/20 02:03:41;;;;;;;;;;;;;;;-4.60;100.00;97433.66;110679;1239;60460;-58
2023/12/20 02:06:16;;;;;;;;;;;;;;;-4.60;100.00;97431.96;110481;1239;60473;-58
2023/12/20 02:08:46;;;;;;;;;;;;;;;-4.59;100.00;97427.55;110479;1244;72643;-56
2023/12/20 02:11:17;;;;;;;;;;;;;;;-4.62;100.00;97419.40;110477;1246;69304;-58
2023/12/20 02:13:48;;;;;;;;;;;;;;;-4.60;100.00;97416.14;110453;1246;69144;-57
2023/12/20 02:16:19;;;;;;;;;;;;;;;-4.62;100.00;97412.95;110526;1238;60484;-57
2023/12/20 02:18:54;;;;;;;;;;;;;;;-4.63;100.00;97402.91;110590;1238;60497;-56
2023/12/20 02:21:25;;;;;;;;;;;;;;;-4.64;100.00;97404.12;110521;1238;72597;-57
2023/12/20 02:23:55;;;;;;;;;;;;;;;-4.60;100.00;97398.80;110506;1239;69151;-58
2023/12/20 02:26:25;;;;;;;;;;;;;;;-4.58;100.00;97401.84;110546;1240;69279;-58
2023/12/20 02:29:02;;;;;;;;;;;;;;;-4.58;100.00;97392.83;110547;1239;60550;-56
2023/12/20 02:31:34;;;;;;;;;;;;;;;-4.62;100.00;97387.26;110613;1239;60566;-58
2023/12/20 02:34:05;;;;;;;;;;;;;;;-4.64;100.00;97381.84;110566;1239;71228;-58
2023/12/20 02:36:38;;;;;;;;;;;;;;;-4.64;100.00;97375.71;110574;1238;68764;-58
2023/12/20 02:39:11;;;;;;;;;;;;;;;-4.66;100.00;97373.38;110481;1241;69276;-57
2023/12/20 02:41:46;;;;;;;;;;;;;;;-4.66;100.00;97365.20;110593;1237;60557;-59
2023/12/20 02:44:21;;;;;;;;;;;;;;;-4.64;100.00;97353.61;110434;1239;60475;-58
2023/12/20 02:46:53;;;;;;;;;;;;;;;-4.63;100.00;97349.17;110473;1239;70286;-57
2023/12/20 02:49:25;;;;;;;;;;;;;;;-4.59;100.00;97350.48;110532;1239;68458;-57
2023/12/20 02:51:59;;;;;;;;;;;;;;;-4.61;100.00;97348.98;110556;1239;69279;-57
2023/12/20 02:54:31;;;;;;;;;;;;;;;-4.62;100.00;97346.28;110642;1239;60471;-57
2023/12/20 02:57:04;;;;;;;;;;;;;;;-4.62;100.00;97344.40;110469;1240;60511;-58
2023/12/20 02:59:34;;;;;;;;;;;;;;;-4.62;100.00;97349.16;110368;1241;72252;-56
2023/12/20 03:02:07;;;;;;;;;;;;;;;-4.67;100.00;97347.70;110407;1241;69148;-56
2023/12/20 03:04:37;;;;;;;;;;;;;;;-4.66;100.00;97349.40;110428;1238;69110;-55
2023/12/20 03:07:08;;;;;;;;;;;;;;;-4.67;100.00;97349.57;110367;1242;60929;-57
2023/12/20 03:09:41;;;;;;;;;;;;;;;-4.66;100.00;97343.77;110517;1241;60507;-58
2023/12/20 03:12:34;;;;;;;;;;;;;;;-4.64;100.00;97338.63;110548;1240;72244;-57
2023/12/20 03:15:06;;;;;;;;;;;;;;;-4.63;100.00;97340.00;110425;1238;69025;-57
2023/12/20 03:17:37;;;;;;;;;;;;;;;-4.68;100.00;97338.88;110570;1238;68499;-58
2023/12/20 03:20:08;;;;;;;;;;;;;;;-4.70;100.00;97339.23;110495;1241;60546;-57
2023/12/20 03:22:40;;;;;;;;;;;;;;;-4.75;100.00;97337.09;110480;1238;60496;-56
2023/12/20 03:25:19;;;;;;;;;;;;;;;-4.73;100.00;97333.15;110381;1238;72040;-56
2023/12/20 03:27:49;;;;;;;;;;;;;;;-4.72;100.00;97330.76;110549;1238;68637;-55
2023/12/20 03:30:19;;;;;;;;;;;;;;;-4.69;100.00;97328.86;110502;1238;69838;-58
2023/12/20 03:32:50;;;;;;;;;;;;;;;-4.68;100.00;97326.45;110467;1239;60557;-57
2023/12/20 03:35:24;;;;;;;;;;;;;;;-4.68;100.00;97323.39;110553;1240;60552;-57
2023/12/20 03:37:56;;;;;;;;;;;;;;;-4.65;100.00;97317.23;110467;1237;72190;-57
2023/12/20 03:40:27;;;;;;;;;;;;;;;-4.63;100.00;97314.47;110473;1239;69068;-57
2023/12/20 03:42:57;;;;;;;;;;;;;;;-4.60;100.00;97315.63;110524;1239;69410;-57
2023/12/20 03:45:29;;;;;;;;;;;;;;;-4.61;100.00;97313.08;110599;1239;60483;-56
2023/12/20 03:48:01;;;;;;;;;;;;;;;-4.65;100.00;97316.21;110391;1238;60545;-57
2023/12/20 03:50:36;;;;;;;;;;;;;;;-4.73;100.00;97311.23;110433;1241;72279;-58
2023/12/20 03:53:06;;;;;;;;;;;;;;;-4.76;100.00;97310.08;110560;1239;68456;-57
2023/12/20 03:55:36;;;;;;;;;;;;;;;-4.81;100.00;97307.08;110157;1244;69278;-58
2023/12/20 03:58:06;;;;;;;;;;;;;;;-4.77;100.00;97306.85;110557;1242;60483;-58
2023/12/20 04:00:37;;;;;;;;;;;;;;;-4.72;100.00;97304.41;110567;1240;60484;-56
2023/12/20 04:03:07;;;;;;;;;;;;;;;-4.70;100.00;97306.08;110667;1240;71730;-58
2023/12/20 04:05:41;;;;;;;;;;;;;;;-4.68;100.00;97308.44;110527;1238;68351;-57
2023/12/20 04:08:14;;;;;;;;;;;;;;;-4.66;100.00;97302.79;110251;1242;68555;-56
2023/12/20 04:10:45;;;;;;;;;;;;;;;-4.66;100.00;97295.48;110459;1238;60486;-57
2023/12/20 04:13:15;;;;;;;;;;;;;;;-4.64;100.00;97288.13;110535;1239;60473;-58
2023/12/20 04:15:44;;;;;;;;;;;;;;;-4.63;100.00;97285.39;110473;1239;73033;-57
2023/12/20 04:18:15;;;;;;;;;;;;;;;-4.63;100.00;97284.55;110396;1241;67602;-57
2023/12/20 04:20:49;;;;;;;;;;;;;;;-4.62;100.00;97281.81;110584;1239;69073;-56
2023/12/20 04:23:20;;;;;;;;;;;;;;;-4.62;100.00;97278.77;110620;1240;60402;-57
2023/12/20 04:25:51;;;;;;;;;;;;;;;-4.64;100.00;97276.40;110421;1237;60550;-56
2023/12/20 04:28:24;;;;;;;;;;;;;;;-4.66;100.00;97274.73;110585;1239;71434;-57
2023/12/20 04:30:54;;;;;;;;;;;;;;;-4.67;100.00;97269.65;110514;1237;68579;-57
2023/12/20 04:33:24;;;;;;;;;;;;;;;-4.71;100.00;97264.95;110515;1241;69449;-57
2023/12/20 04:35:55;;;;;;;;;;;;;;;-4.74;100.00;97259.73;110494;1238;60550;-57
2023/12/20 04:38:25;;;;;;;;;;;;;;;-4.77;100.00;97252.27;110636;1239;60492;-58
2023/12/20 04:40:55;;;;;;;;;;;;;;;-4.79;100.00;97247.88;110550;1239;72669;-56
2023/12/20 04:43:28;;;;;;;;;;;;;;;-4.84;100.00;97239.63;110261;1242;69537;-56
2023/12/20 04:45:57;;;;;;;;;;;;;;;-4.84;100.00;97236.91;110474;1239;69263;-59
2023/12/20 04:48:28;;;;;;;;;;;;;;;-4.90;100.00;97232.05;110426;1241;60557;-59
2023/12/20 04:50:57;;;;;;;;;;;;;;;-4.95;100.00;97232.98;110502;1239;60555;-59
2023/12/20 04:53:27;;;;;;;;;;;;;;;-5.04;100.00;97233.11;110555;1238;72510;-57
2023/12/20 04:55:58;;;;;;;;;;;;;;;-5.12;100.00;97236.13;110476;1238;69071;-56
2023/12/20 04:58:29;;;;;;;;;;;;;;;-5.20;100.00;97231.46;110606;1238;69245;-56
2023/12/20 05:00:58;;;;;;;;;;;;;;;-5.24;100.00;97227.94;110455;1238;60950;-57
2023/12/20 05:03:28;;;;;;;;;;;;;;;-5.27;100.00;97227.82;110475;1238;60575;-56
2023/12/20 05:05:58;;;;;;;;;;;;;;;-5.28;100.00;97230.71;110461;1242;72200;-57
2023/12/20 05:08:29;;;;;;;;;;;;;;;-5.30;100.00;97229.73;110538;1238;68329;-55
2023/12/20 05:10:59;;;;;;;;;;;;;;;-5.29;100.00;97227.67;110418;1240;69218;-57
2023/12/20 05:13:29;;;;;;;;;;;;;;;-5.30;100.00;97231.77;110532;1241;60542;-57
2023/12/20 05:16:13;;;;;;;;;;;;;;;-5.34;100.00;97227.41;110584;1238;60424;-59
2023/12/20 05:18:43;;;;;;;;;;;;;;;-5.36;100.00;97228.63;110635;1237;72776;-57
2023/12/20 05:21:14;;;;;;;;;;;;;;;-5.42;100.00;97228.01;110541;1238;69393;-59
2023/12/20 05:23:44;;;;;;;;;;;;;;;-5.44;100.00;97231.44;110485;1239;69588;-59
2023/12/20 05:26:14;;;;;;;;;;;;;;;-5.45;100.00;97224.48;110475;1237;60600;-59
2023/12/20 05:28:44;;;;;;;;;;;;;;;-5.46;100.00;97220.23;110596;1238;60513;-58
2023/12/20 05:31:13;;;;;;;;;;;;;;;-5.46;100.00;97214.97;110603;1238;72211;-57
2023/12/20 05:33:44;;;;;;;;;;;;;;;-5.45;100.00;97215.66;110623;1239;69233;-59
2023/12/20 05:36:15;;;;;;;;;;;;;;;-5.46;100.00;97215.66;110594;1240;69509;-58
2023/12/20 05:38:45;;;;;;;;;;;;;;;-5.46;100.00;97217.35;110654;1238;60482;-58
2023/12/20 05:41:14;;;;;;;;;;;;;;;-5.49;100.00;97214.34;110510;1237;60601;-62
2023/12/20 05:43:44;;;;;;;;;;;;;;;-5.48;100.00;97213.30;110518;1238;72720;-58
2023/12/20 05:46:14;;;;;;;;;;;;;;;-5.46;100.00;97215.48;110531;1239;69292;-58
2023/12/20 05:48:44;;;;;;;;;;;;;;;-5.48;100.00;97214.15;110753;1238;69379;-58
2023/12/20 05:51:15;;;;;;;;;;;;;;;-5.47;100.00;97209.73;110675;1242;60528;-58
2023/12/20 05:53:44;;;;;;;;;;;;;;;-5.44;100.00;97206.65;110448;1241;60489;-58
2023/12/20 05:56:13;;;;;;;;;;;;;;;-5.43;100.00;97206.11;110558;1238;71981;-58
2023/12/20 05:58:43;;;;;;;;;;;;;;;-5.43;100.00;97205.42;110566;1238;68348;-57
2023/12/20 06:01:14;;;;;;;;;;;;;;;-5.42;100.00;97205.59;110457;1239;69066;-57
2023/12/20 06:03:45;;;;;;;;;;;;;;;-5.39;100.00;97198.24;110769;1238;60463;-57
2023/12/20 06:06:15;;;;;;;;;;;;;;;-5.37;100.00;97200.27;110403;1240;60472;-58
2023/12/20 06:08:45;;;;;;;;;;;;;;;-5.35;100.00;97195.14;110427;1240;71340;-57
2023/12/20 06:11:14;;;;;;;;;;;;;;;-5.39;100.00;97196.89;110415;1238;69302;-57
2023/12/20 06:13:44;;;;;;;;;;;;;;;-5.42;100.00;97191.66;110454;1239;69283;-58
2023/12/20 06:16:14;;;;;;;;;;;;;;;-5.42;100.00;97195.39;110399;1241;60556;-57
2023/12/20 06:18:44;;;;;;;;;;;;;;;-5.41;100.00;97191.98;110484;1241;60491;-57
2023/12/20 06:21:14;;;;;;;;;;;;;;;-5.40;100.00;97189.60;110602;1241;72537;-55
2023/12/20 06:23:44;;;;;;;;;;;;;;;-5.41;100.00;97190.46;110614;1239;69829;-56
2023/12/20 06:26:14;;;;;;;;;;;;;;;-5.40;100.00;97191.81;110450;1241;70043;-57
2023/12/20 06:28:43;;;;;;;;;;;;;;;-5.44;100.00;97196.95;110652;1238;60508;-54
2023/12/20 06:31:13;;;;;;;;;;;;;;;-5.46;100.00;97195.96;110458;1238;60489;-57
2023/12/20 06:33:44;;;;;;;;;;;;;;;-5.41;100.00;97195.23;110411;1242;71496;-57
2023/12/20 06:36:27;;;;;;;;;;;;;;;-5.38;100.00;97190.92;110059;1244;69298;-61
2023/12/20 06:38:57;;;;;;;;;;;;;;;-5.38;100.00;97187.52;110066;1244;68510;-61
2023/12/20 06:41:27;;;;;;;;;;;;;;;-5.36;100.00;97192.10;110117;1245;60976;-61
2023/12/20 06:43:57;;;;;;;;;;;;;;;-5.34;100.00;97194.63;110183;1244;60937;-61
2023/12/20 06:46:27;;;;;;;;;;;;;;;-5.30;100.00;97190.66;110200;1243;72757;-62
2023/12/20 06:48:57;;;;;;;;;;;;;;;-5.27;100.00;97183.64;110194;1244;69307;-61
2023/12/20 06:51:27;;;;;;;;;;;;;;;-5.27;100.00;97184.66;110132;1243;69137;-63
2023/12/20 06:53:56;;;;;;;;;;;;;;;-5.26;100.00;97179.05;110128;1241;60558;-62
2023/12/20 06:56:25;;;;;;;;;;;;;;;-5.18;100.00;97178.24;110152;1243;60501;-62
2023/12/20 06:58:55;;;;;;;;;;;;;;;-5.17;100.00;97178.07;110177;1244;71651;-58
2023/12/20 07:01:25;;;;;;;;;;;;;;;-5.12;100.00;97176.80;110135;1244;68315;-58
2023/12/20 07:03:54;;;;;;;;;;;;;;;-5.06;100.00;97179.11;110135;1243;68575;-81
2023/12/20 07:06:25;;;;;;;;;;;;;;;-5.09;100.00;97176.95;110426;1242;61012;-80
2023/12/20 07:08:54;;;;;;;;;;;;;;;-5.08;100.00;97171.99;110149;1244;60570;-82
2023/12/20 07:11:24;;;;;;;;;;;;;;;-5.07;100.00;97171.97;110338;1244;72685;-80
2023/12/20 07:13:54;;;;;;;;;;;;;;;-5.04;100.00;97168.54;110306;1241;69270;-80
2023/12/20 07:16:24;;;;;;;;;;;;;;;-4.96;100.00;97165.02;110669;1239;69117;-80
2023/12/20 07:18:53;;;;;;;;;;;;;;;-4.92;100.00;97164.11;110562;1241;60510;-79
2023/12/20 07:21:23;;;;;;;;;;;;;;;-4.90;100.00;97158.98;110788;1239;60536;-80
2023/12/20 07:23:52;;;;;;;;;;;;;;;-4.88;100.00;97156.04;110696;1238;72863;-80
2023/12/20 07:26:21;;;;;;;;;;;;;;;-4.87;100.00;97156.04;110621;1239;69794;-79
2023/12/20 07:28:49;;;;;;;;;;;;;;;-4.89;100.00;97158.10;110394;1242;68680;-80
2023/12/20 07:31:18;;;;;;;;;;;;;;;-4.91;100.00;97161.20;110627;1239;60886;-80
2023/12/20 07:33:47;;;;;;;;;;;;;;;-4.95;100.00;97156.15;110770;1239;60472;-80
2023/12/20 07:36:17;;;;;;;;;;;;;;;-4.95;100.00;97152.41;110692;1237;71227;-80
2023/12/20 07:38:45;;;;;;;;;;;;;;;-4.94;100.00;97152.06;110703;1239;69823;-81
2023/12/20 07:41:15;;;;;;;;;;;;;;;-4.93;100.00;97143.05;110630;1239;68256;-80
2023/12/20 07:43:44;;;;;;;;;;;;;;;-5.00;100.00;97143.32;110702;1239;60985;-80
2023/12/20 07:46:14;;;;;;;;;;;;;;;-4.96;100.00;97138.33;110695;1238;60490;-81
2023/12/20 07:48:43;;;;;;;;;;;;;;;-4.93;100.00;97132.33;110775;1239;72208;-80
2023/12/20 07:51:13;;;;;;;;;;;;;;;-4.88;100.00;97125.96;110645;1239;69286;-80
2023/12/20 07:53:42;;;;;;;;;;;;;;;-4.81;100.00;97127.89;110701;1239;70309;-80
2023/12/20 07:56:15;;;;;;;;;;;;;;;-4.76;100.00;97124.40;110477;1238;60562;-80
2023/12/20 07:58:45;;;;;;;;;;;;;;;-4.72;100.00;97123.48;110792;1240;60817;-80
2023/12/20 08:01:21;;;;;;;;;;;;;;;-4.66;100.00;97120.31;110713;1238;72200;-79
2023/12/20 08:03:51;;;;;;;;;;;;;;;-4.56;100.00;97117.94;110690;1238;69149;-80
2023/12/20 08:06:21;;;;;;;;;;;;;;;-4.44;100.00;97113.64;110651;1241;68672;-80
2023/12/20 08:08:51;;;;;;;;;;;;;;;-4.38;100.00;97107.06;110583;1241;60540;-80
2023/12/20 08:11:36;;;;;;;;;;;;;;;-4.28;100.00;97101.27;110586;1238;60492;-80
2023/12/20 08:14:05;;;;;;;;;;;;;;;-4.24;100.00;97098.29;110668;1240;72223;-80
2023/12/20 08:16:34;;;;;;;;;;;;;;;-4.17;100.00;97093.21;110554;1238;68500;-81
2023/12/20 08:19:03;;;;;;;;;;;;;;;-4.07;100.00;97090.13;110805;1238;69297;-80
2023/12/20 08:21:32;;;;;;;;;;;;;;;-3.98;100.00;97089.44;110591;1238;60492;-80
2023/12/20 08:24:06;;;;;;;;;;;;;;;-3.92;100.00;97088.80;110836;1237;60487;-80
2023/12/20 08:26:35;;;;;;;;;;;;;;;-3.92;100.00;97083.35;110689;1238;71522;-81
2023/12/20 08:29:05;;;;;;;;;;;;;;;-3.93;100.00;97078.28;110811;1238;69437;-80
2023/12/20 08:31:34;;;;;;;;;;;;;;;-3.88;100.00;97080.03;110628;1238;68433;-81
2023/12/20 08:34:03;;;;;;;;;;;;;;;-3.82;100.00;97078.55;110615;1239;60559;-81
2023/12/20 08:36:36;;;;;;;;;;;;;;;-3.77;100.00;97066.52;110574;1239;60485;-81
2023/12/20 08:39:07;;;;;;;;;;;;;;;-3.74;100.00;97064.91;110598;1237;72178;-76
2023/12/20 08:41:37;;;;;;;;;;;;;;;-3.65;100.00;97069.67;110623;1238;69205;-76
2023/12/20 08:44:06;;;;;;;;;;;;;;;-3.55;100.00;97068.77;110493;1238;69245;-77
2023/12/20 08:46:35;;;;;;;;;;;;;;;-3.46;100.00;97058.86;110492;1238;60431;-80
2023/12/20 08:49:04;;;;;;;;;;;;;;;-3.43;100.00;97058.60;110737;1238;60547;-79
2023/12/20 08:51:33;;;;;;;;;;;;;;;-3.34;100.00;97053.11;110591;1241;72794;-79
2023/12/20 08:54:03;;;;;;;;;;;;;;;-3.29;100.00;97052.84;110769;1239;69290;-80
2023/12/20 08:56:32;;;;;;;;;;;;;;;-3.29;100.00;97050.45;110695;1238;68518;-81
2023/12/20 08:59:01;;;;;;;;;;;;;;;-3.25;100.00;97049.52;110738;1237;60489;-82
2023/12/20 09:01:31;;;;;;;;;;;;;;;-3.26;100.00;97048.67;110706;1238;60917;-81
2023/12/20 09:03:59;;;;;;;;;;;;;;;-3.22;100.00;97042.27;110784;1239;71652;-78
2023/12/20 09:06:29;;;;;;;;;;;;;;;-3.17;100.00;97032.77;110635;1238;69231;-81
2023/12/20 09:08:58;;;;;;;;;;;;;;;-3.14;100.00;97023.48;110543;1241;67407;-83
2023/12/20 09:11:26;;;;;;;;;;;;;;;-3.07;100.00;97012.92;110608;1238;60518;-83
2023/12/20 09:13:56;;;;;;;;;;;;;;;-2.99;100.00;97011.36;110673;1239;60484;-83
2023/12/20 09:16:25;;;;;;;;;;;;;;;-2.85;100.00;97007.75;110702;1239;72039;-82
2023/12/20 09:18:54;;;;;;;;;;;;;;;-2.75;100.00;97005.28;110705;1237;69808;-83
2023/12/20 09:21:23;;;;;;;;;;;;;;;-2.70;100.00;96990.99;110634;1239;69983;-82
2023/12/20 09:23:52;;;;;;;;;;;;;;;-2.56;100.00;96978.16;110673;1239;60572;-82
2023/12/20 09:26:20;;;;;;;;;;;;;;;-2.43;100.00;96965.83;110649;1239;60898;-81
2023/12/20 09:28:49;;;;;;;;;;;;;;;-2.30;100.00;96951.48;110479;1241;71438;-81
2023/12/20 09:31:18;;;;;;;;;;;;;;;-2.23;100.00;96945.11;110719;1239;69777;-80
2023/12/20 09:33:47;;;;;;;;;;;;;;;-2.05;100.00;96941.00;110641;1239;69797;-85
2023/12/20 09:36:15;;;;;;;;;;;;;;;-1.89;100.00;96935.20;110657;1239;60516;-85
2023/12/20 09:38:44;;;;;;;;;;;;;;;-1.77;100.00;96932.78;110823;1239;60537;-85
2023/12/20 09:41:15;;;;;;;;;;;;;;;-1.63;100.00;96930.64;110752;1238;72872;-80
2023/12/20 09:43:44;;;;;;;;;;;;;;;-1.50;100.00;96923.55;110665;1238;69327;-80
2023/12/20 09:46:15;;;;;;;;;;;;;;;-1.42;100.00;96923.13;110639;1237;70015;-80
2023/12/20 09:48:45;;;;;;;;;;;;;;;-1.37;100.00;96915.27;110772;1239;60524;-80
2023/12/20 09:51:15;;;;;;;;;;;;;;;-1.24;100.00;96911.42;110440;1245;60493;-80
2023/12/20 09:53:46;;;;;;;;;;;;;;;-1.10;100.00;96902.86;110669;1239;72057;-80
2023/12/20 09:56:15;;;;;;;;;;;;;;;-0.93;100.00;96891.52;110616;1239;70164;-80
2023/12/20 09:58:43;;;;;;;;;;;;;;;-0.85;100.00;96889.01;110499;1242;69584;-80
2023/12/20 10:01:13;;;;;;;;;;;;;;;-0.71;100.00;96886.44;110628;1238;60458;-81
2023/12/20 10:03:43;;;;;;;;;;;;;;;-0.53;100.00;96884.25;110700;1238;60544;-81
2023/12/20 10:06:12;;;;;;;;;;;;;;;-0.10;100.00;96881.77;110764;1238;72146;-81
2023/12/20 10:08:41;;;;;;;;;;;;;;;0.31;100.00;96877.22;110616;1238;69192;-81
2023/12/20 10:11:10;;;;;;;;;;;;;;;0.86;98.85;96870.30;110644;1238;69871;-82
2023/12/20 10:13:42;;;;;;;;;;;;;;;1.28;96.16;96864.73;110751;1241;60537;-81
2023/12/20 10:16:11;;;;;;;;;;;;;;;1.84;93.57;96862.15;110818;1238;60473;-82
2023/12/20 10:18:40;;;;;;;;;;;;;;;2.17;91.68;96860.11;110832;1238;72399;-81
2023/12/20 10:21:09;;;;;;;;;;;;;;;2.39;88.07;96858.17;110670;1239;68923;-80
2023/12/20 10:23:39;;;;;;;;;;;;;;;2.40;87.17;96850.70;110735;1239;68564;-82
2023/12/20 10:26:09;;;;;;;;;;;;;;;2.29;90.05;96848.84;110667;1238;60486;-80
2023/12/20 10:28:38;;;;;;;;;;;;;;;2.27;90.65;96848.26;110650;1239;60469;-80
2023/12/20 10:31:08;;;;;;;;;;;;;;;2.17;96.70;96842.71;110588;1239;72764;-81
2023/12/20 10:33:40;;;;;;;;;;;;;;;1.89;98.40;96843.17;110524;1239;69233;-78
2023/12/20 10:36:09;;;;;;;;;;;;;;;1.66;99.73;96844.13;110634;1239;68692;-79
2023/12/20 10:38:39;;;;;;;;;;;;;;;1.42;100.00;96844.00;110753;1237;60465;-80
2023/12/20 10:41:08;;;;;;;;;;;;;;;1.09;100.00;96839.31;110563;1238;60459;-81
2023/12/20 10:43:38;;;;;;;;;;;;;;;0.97;100.00;96836.73;110575;1237;72008;-82
2023/12/20 10:46:08;;;;;;;;;;;;;;;0.98;100.00;96838.08;110578;1238;68581;-81
2023/12/20 10:48:39;;;;;;;;;;;;;;;0.93;100.00;96836.87;110755;1238;69318;-81
2023/12/20 10:51:09;;;;;;;;;;;;;;;0.94;100.00;96831.37;110661;1239;60508;-82
2023/12/20 10:53:40;;;;;;;;;;;;;;;1.04;100.00;96826.14;110662;1239;60470;-82
2023/12/20 10:56:12;;;;;;;;;;;;;;;1.22;100.00;96821.70;110659;1238;71507;-84
2023/12/20 10:58:43;;;;;;;;;;;;;;;1.39;100.00;96817.67;110829;1238;68291;-81
2023/12/20 11:01:13;;;;;;;;;;;;;;;1.40;100.00;96810.42;110633;1238;69955;-82
2023/12/20 11:03:52;;;;;;;;;;;;;;;1.39;100.00;96811.16;110632;1239;60524;-82
2023/12/20 11:06:33;;;;;;;;;;;;;;;1.48;100.00;96809.57;110696;1239;60430;-82
2023/12/20 11:09:21;;;;;;;;;;;;;;;1.60;100.00;96806.45;110524;1237;72232;-79
2023/12/20 11:12:17;;;;;;;;;;;;;;;1.64;100.00;96801.11;110765;1239;70199;-80
2023/12/20 11:14:47;;;;;;;;;;;;;;;1.70;100.00;96797.21;110682;1239;69271;-80
2023/12/20 11:17:16;;;;;;;;;;;;;;;1.97;100.00;96795.36;110668;1237;60504;-81
2023/12/20 11:20:01;;;;;;;;;;;;;;;2.27;100.00;96794.09;110717;1239;60520;-80
2023/12/20 11:22:31;;;;;;;;;;;;;;;2.52;100.00;96797.67;110726;1238;73086;-80
2023/12/20 11:25:10;;;;;;;;;;;;;;;2.68;100.00;96791.55;110786;1238;69389;-81
2023/12/20 11:27:45;;;;;;;;;;;;;;;2.40;100.00;96784.30;110682;1239;69250;-81
2023/12/20 11:30:17;;;;;;;;;;;;;;;2.32;100.00;96780.77;110679;1239;60509;-81
2023/12/20 11:32:47;;;;;;;;;;;;;;;2.23;100.00;96781.20;110698;1239;60466;-81
2023/12/20 11:35:18;;;;;;;;;;;;;;;2.23;100.00;96767.83;110612;1239;71617;-82
2023/12/20 11:37:48;;;;;;;;;;;;;;;2.22;100.00;96763.91;110644;1239;69214;-81
2023/12/20 11:40:18;;;;;;;;;;;;;;;2.03;100.00;96763.30;110564;1239;69261;-81
2023/12/20 11:42:50;;;;;;;;;;;;;;;1.76;100.00;96761.17;110630;1239;60492;-81
2023/12/20 11:45:24;;;;;;;;;;;;;;;1.66;100.00;96758.22;110632;1238;60478;-81
2023/12/20 11:47:57;;;;;;;;;;;;;;;1.55;100.00;96753.74;110626;1238;72710;-81
2023/12/20 11:50:26;;;;;;;;;;;;;;;1.46;100.00;96755.02;110638;1239;69681;-82
2023/12/20 11:52:56;;;;;;;;;;;;;;;1.45;100.00;96753.00;110725;1239;69312;-81
2023/12/20 11:55:25;;;;;;;;;;;;;;;1.38;100.00;96752.98;110668;1239;60479;-81
2023/12/20 11:57:54;;;;;;;;;;;;;;;1.41;100.00;96747.71;110719;1239;60544;-80
2023/12/20 12:00:23;;;;;;;;;;;;;;;1.43;100.00;96741.94;110691;1239;72154;-80
2023/12/20 12:02:56;;;;;;;;;;;;;;;1.44;100.00;96738.84;110708;1239;68275;-80
2023/12/20 12:05:25;;;;;;;;;;;;;;;1.44;100.00;96735.36;110672;1242;68567;-80
2023/12/20 12:07:54;;;;;;;;;;;;;;;1.42;100.00;96726.91;110646;1239;60457;-80
2023/12/20 12:10:24;;;;;;;;;;;;;;;1.48;100.00;96724.89;110723;1238;60485;-80
2023/12/20 12:12:54;;;;;;;;;;;;;;;1.59;100.00;96720.59;110615;1238;72752;-80
2023/12/20 12:15:22;;;;;;;;;;;;;;;1.75;100.00;96724.61;110607;1239;69280;-80
2023/12/20 12:17:55;;;;;;;;;;;;;;;1.91;100.00;96724.33;110625;1238;69267;-80
2023/12/20 12:20:24;;;;;;;;;;;;;;;2.19;100.00;96716.77;110772;1239;60540;-80
2023/12/20 12:23:00;;;;;;;;;;;;;;;2.57;100.00;96708.29;110726;1238;60546;-81
2023/12/20 12:25:31;;;;;;;;;;;;;;;3.16;100.00;96708.40;110800;1239;72270;-80
2023/12/20 12:28:01;;;;;;;;;;;;;;;3.45;99.17;96700.14;110807;1239;69750;-79
2023/12/20 12:30:30;;;;;;;;;;;;;;;3.58;99.66;96697.32;110598;1246;68484;-80
2023/12/20 12:33:06;;;;;;;;;;;;;;;3.71;100.00;96692.34;110609;1239;60499;-80
2023/12/20 12:35:37;;;;;;;;;;;;;;;3.68;99.80;96689.73;110746;1246;60549;-79
2023/12/20 12:38:07;;;;;;;;;;;;;;;3.67;100.00;96687.36;110575;1239;72369;-80
2023/12/20 12:40:36;;;;;;;;;;;;;;;3.65;100.00;96686.62;110648;1239;69337;-79
2023/12/20 12:43:06;;;;;;;;;;;;;;;3.76;99.75;96677.70;110673;1238;69272;-79
2023/12/20 12:45:36;;;;;;;;;;;;;;;3.81;96.73;96672.60;110649;1239;60492;-79
2023/12/20 12:48:05;;;;;;;;;;;;;;;3.66;95.53;96667.59;110633;1238;60534;-79
2023/12/20 12:50:34;;;;;;;;;;;;;;;3.67;97.90;96670.11;110715;1238;72055;-79